sensor_id;sensor_type;location;lat;lon;timestamp;P1;durP1;ratioP1;P2;durP2;ratioP2
12288;SDS011;6207;49.308;7.336;2022-10-22T00:01:51;9.03;;;6.57;;
12288;SDS011;6207;49.308;7.336;2022-10-22T00:04:19;8.07;;;7.27;;
12288;SDS011;6207;49.308;7.336;2022-10-22T00:06:46;8.07;;;6.93;;
12288;SDS011;6207;49.308;7.336;2022-10-22T00:09:13;7.75;;;6.95;;
12288;SDS011;6207;49.308;7.336;2022-10-22T00:11:41;8.77;;;6.67;;
12288;SDS011;6207;49.308;7.336;2022-10-22T00:14:08;7.40;;;6.70;;
12288;SDS011;6207;49.308;7.336;2022-10-22T00:16:35;7.60;;;5.40;;
12288;SDS011;6207;49.308;7.336;2022-10-22T00:19:02;6.03;;;5.50;;
12288;SDS011;6207;49.308;7.336;2022-10-22T00:21:29;9.00;;;5.47;;
12288;SDS011;6207;49.308;7.336;2022-10-22T00:23:55;7.87;;;5.17;;
12288;SDS011;6207;49.308;7.336;2022-10-22T00:26:22;5.57;;;5.07;;
12288;SDS011;6207;49.308;7.336;2022-10-22T00:28:49;4.67;;;4.33;;
12288;SDS011;6207;49.308;7.336;2022-10-22T00:31:15;5.40;;;4.50;;
12288;SDS011;6207;49.308;7.336;2022-10-22T00:33:47;5.67;;;4.47;;
12288;SDS011;6207;49.308;7.336;2022-10-22T00:36:14;4.30;;;4.00;;
12288;SDS011;6207;49.308;7.336;2022-10-22T00:38:42;4.20;;;3.90;;
12288;SDS011;6207;49.308;7.336;2022-10-22T00:41:08;4.40;;;4.00;;
12288;SDS011;6207;49.308;7.336;2022-10-22T00:43:52;6.47;;;3.63;;
12288;SDS011;6207;49.308;7.336;2022-10-22T00:46:20;4.33;;;3.93;;
12288;SDS011;6207;49.308;7.336;2022-10-22T00:48:47;5.63;;;3.63;;
12288;SDS011;6207;49.308;7.336;2022-10-22T00:51:14;3.50;;;3.20;;
12288;SDS011;6207;49.308;7.336;2022-10-22T00:53:46;3.70;;;3.27;;
12288;SDS011;6207;49.308;7.336;2022-10-22T00:56:16;5.20;;;3.10;;
12288;SDS011;6207;49.308;7.336;2022-10-22T00:58:44;5.23;;;3.30;;
12288;SDS011;6207;49.308;7.336;2022-10-22T01:01:20;3.57;;;2.87;;
12288;SDS011;6207;49.308;7.336;2022-10-22T01:03:50;4.33;;;3.07;;
12288;SDS011;6207;49.308;7.336;2022-10-22T01:06:20;3.03;;;2.83;;
12288;SDS011;6207;49.308;7.336;2022-10-22T01:11:31;9.17;;;4.27;;
12288;SDS011;6207;49.308;7.336;2022-10-22T01:22:31;4.77;;;3.37;;
12288;SDS011;6207;49.308;7.336;2022-10-22T01:25:46;3.20;;;3.00;;
12288;SDS011;6207;49.308;7.336;2022-10-22T01:28:10;4.77;;;3.30;;
12288;SDS011;6207;49.308;7.336;2022-10-22T01:30:52;7.37;;;3.03;;
12288;SDS011;6207;49.308;7.336;2022-10-22T01:33:21;6.83;;;3.70;;
12288;SDS011;6207;49.308;7.336;2022-10-22T01:35:50;3.70;;;3.40;;
12288;SDS011;6207;49.308;7.336;2022-10-22T01:38:19;5.53;;;3.77;;
12288;SDS011;6207;49.308;7.336;2022-10-22T01:40:48;3.50;;;3.20;;
12288;SDS011;6207;49.308;7.336;2022-10-22T01:43:16;4.53;;;3.10;;
12288;SDS011;6207;49.308;7.336;2022-10-22T01:59:34;5.63;;;3.60;;
12288;SDS011;6207;49.308;7.336;2022-10-22T02:02:12;4.73;;;3.57;;
12288;SDS011;6207;49.308;7.336;2022-10-22T02:04:57;5.90;;;3.33;;
12288;SDS011;6207;49.308;7.336;2022-10-22T02:07:31;5.87;;;3.10;;
12288;SDS011;6207;49.308;7.336;2022-10-22T02:10:03;4.33;;;3.00;;
12288;SDS011;6207;49.308;7.336;2022-10-22T02:12:32;3.13;;;2.83;;
12288;SDS011;6207;49.308;7.336;2022-10-22T02:15:00;3.17;;;2.80;;
12288;SDS011;6207;49.308;7.336;2022-10-22T02:17:30;3.20;;;2.90;;
12288;SDS011;6207;49.308;7.336;2022-10-22T02:20:00;3.37;;;2.70;;
12288;SDS011;6207;49.308;7.336;2022-10-22T02:22:33;3.80;;;3.40;;
12288;SDS011;6207;49.308;7.336;2022-10-22T02:25:02;3.53;;;2.97;;
12288;SDS011;6207;49.308;7.336;2022-10-22T02:27:32;5.63;;;3.10;;
12288;SDS011;6207;49.308;7.336;2022-10-22T02:30:07;3.10;;;2.83;;
12288;SDS011;6207;49.308;7.336;2022-10-22T02:32:49;4.13;;;2.80;;
12288;SDS011;6207;49.308;7.336;2022-10-22T02:35:38;5.93;;;3.20;;
12288;SDS011;6207;49.308;7.336;2022-10-22T02:38:06;4.80;;;2.80;;
12288;SDS011;6207;49.308;7.336;2022-10-22T02:40:34;3.20;;;2.90;;
12288;SDS011;6207;49.308;7.336;2022-10-22T02:43:03;3.43;;;2.80;;
12288;SDS011;6207;49.308;7.336;2022-10-22T02:45:31;3.40;;;3.07;;
12288;SDS011;6207;49.308;7.336;2022-10-22T02:47:58;4.50;;;2.93;;
12288;SDS011;6207;49.308;7.336;2022-10-22T02:50:25;5.97;;;2.90;;
12288;SDS011;6207;49.308;7.336;2022-10-22T02:52:51;3.20;;;2.80;;
12288;SDS011;6207;49.308;7.336;2022-10-22T02:55:18;4.37;;;2.90;;
12288;SDS011;6207;49.308;7.336;2022-10-22T02:57:45;3.33;;;2.47;;
12288;SDS011;6207;49.308;7.336;2022-10-22T03:00:11;5.00;;;2.90;;
12288;SDS011;6207;49.308;7.336;2022-10-22T03:02:38;3.20;;;2.50;;
12288;SDS011;6207;49.308;7.336;2022-10-22T03:05:05;3.63;;;2.43;;
12288;SDS011;6207;49.308;7.336;2022-10-22T03:07:32;2.83;;;2.43;;
12288;SDS011;6207;49.308;7.336;2022-10-22T03:09:59;2.60;;;2.40;;
12288;SDS011;6207;49.308;7.336;2022-10-22T03:12:26;2.60;;;2.40;;
12288;SDS011;6207;49.308;7.336;2022-10-22T03:14:52;4.00;;;2.57;;
12288;SDS011;6207;49.308;7.336;2022-10-22T03:17:19;2.60;;;2.40;;
12288;SDS011;6207;49.308;7.336;2022-10-22T03:19:46;3.30;;;2.53;;
12288;SDS011;6207;49.308;7.336;2022-10-22T03:22:21;3.93;;;2.83;;
12288;SDS011;6207;49.308;7.336;2022-10-22T03:24:53;3.93;;;2.70;;
12288;SDS011;6207;49.308;7.336;2022-10-22T03:27:23;4.67;;;2.90;;
12288;SDS011;6207;49.308;7.336;2022-10-22T03:29:51;3.53;;;2.57;;
12288;SDS011;6207;49.308;7.336;2022-10-22T03:32:18;3.43;;;2.80;;
12288;SDS011;6207;49.308;7.336;2022-10-22T03:34:44;3.80;;;2.50;;
12288;SDS011;6207;49.308;7.336;2022-10-22T03:37:11;3.50;;;2.57;;
12288;SDS011;6207;49.308;7.336;2022-10-22T03:39:38;2.60;;;2.40;;
12288;SDS011;6207;49.308;7.336;2022-10-22T03:42:05;2.53;;;2.33;;
12288;SDS011;6207;49.308;7.336;2022-10-22T03:44:34;2.57;;;2.37;;
12288;SDS011;6207;49.308;7.336;2022-10-22T03:47:02;2.70;;;2.20;;
12288;SDS011;6207;49.308;7.336;2022-10-22T03:49:29;3.43;;;2.40;;
12288;SDS011;6207;49.308;7.336;2022-10-22T03:51:55;5.07;;;3.30;;
12288;SDS011;6207;49.308;7.336;2022-10-22T03:54:22;3.23;;;2.93;;
12288;SDS011;6207;49.308;7.336;2022-10-22T03:56:55;3.03;;;2.73;;
12288;SDS011;6207;49.308;7.336;2022-10-22T03:59:21;2.60;;;2.40;;
12288;SDS011;6207;49.308;7.336;2022-10-22T04:01:48;2.80;;;2.60;;
12288;SDS011;6207;49.308;7.336;2022-10-22T04:04:15;2.60;;;2.40;;
12288;SDS011;6207;49.308;7.336;2022-10-22T04:06:41;4.10;;;2.57;;
12288;SDS011;6207;49.308;7.336;2022-10-22T04:09:08;5.30;;;2.40;;
12288;SDS011;6207;49.308;7.336;2022-10-22T04:11:35;2.67;;;2.10;;
12288;SDS011;6207;49.308;7.336;2022-10-22T04:14:02;2.77;;;2.27;;
12288;SDS011;6207;49.308;7.336;2022-10-22T04:16:28;5.53;;;2.50;;
12288;SDS011;6207;49.308;7.336;2022-10-22T04:18:57;5.27;;;2.43;;
12288;SDS011;6207;49.308;7.336;2022-10-22T04:21:24;2.53;;;2.20;;
12288;SDS011;6207;49.308;7.336;2022-10-22T04:23:51;2.83;;;2.50;;
12288;SDS011;6207;49.308;7.336;2022-10-22T04:26:18;4.23;;;2.30;;
12288;SDS011;6207;49.308;7.336;2022-10-22T04:28:46;5.40;;;2.30;;
12288;SDS011;6207;49.308;7.336;2022-10-22T04:31:18;4.80;;;2.30;;
12288;SDS011;6207;49.308;7.336;2022-10-22T04:33:52;5.83;;;2.40;;
12288;SDS011;6207;49.308;7.336;2022-10-22T04:36:25;4.77;;;2.13;;
12288;SDS011;6207;49.308;7.336;2022-10-22T04:38:54;4.03;;;2.20;;
12288;SDS011;6207;49.308;7.336;2022-10-22T04:41:27;2.37;;;1.90;;
12288;SDS011;6207;49.308;7.336;2022-10-22T04:43:56;3.47;;;2.00;;
12288;SDS011;6207;49.308;7.336;2022-10-22T04:46:24;3.57;;;1.80;;
12288;SDS011;6207;49.308;7.336;2022-10-22T04:48:52;5.47;;;1.90;;
12288;SDS011;6207;49.308;7.336;2022-10-22T04:51:20;3.20;;;2.20;;
12288;SDS011;6207;49.308;7.336;2022-10-22T04:53:48;3.57;;;2.00;;
12288;SDS011;6207;49.308;7.336;2022-10-22T04:56:16;4.10;;;2.10;;
12288;SDS011;6207;49.308;7.336;2022-10-22T04:58:48;3.40;;;1.97;;
12288;SDS011;6207;49.308;7.336;2022-10-22T05:03:48;4.80;;;1.80;;
12288;SDS011;6207;49.308;7.336;2022-10-22T05:06:17;7.27;;;2.10;;
12288;SDS011;6207;49.308;7.336;2022-10-22T05:08:46;2.97;;;2.20;;
12288;SDS011;6207;49.308;7.336;2022-10-22T05:11:15;4.23;;;2.10;;
12288;SDS011;6207;49.308;7.336;2022-10-22T05:13:43;2.93;;;1.93;;
12288;SDS011;6207;49.308;7.336;2022-10-22T05:16:10;4.13;;;2.03;;
12288;SDS011;6207;49.308;7.336;2022-10-22T05:18:38;2.10;;;1.80;;
12288;SDS011;6207;49.308;7.336;2022-10-22T05:21:07;3.13;;;1.90;;
12288;SDS011;6207;49.308;7.336;2022-10-22T05:23:38;4.10;;;1.93;;
12288;SDS011;6207;49.308;7.336;2022-10-22T05:26:06;3.97;;;1.93;;
12288;SDS011;6207;49.308;7.336;2022-10-22T05:28:34;5.20;;;2.27;;
12288;SDS011;6207;49.308;7.336;2022-10-22T05:31:02;3.90;;;3.50;;
12288;SDS011;6207;49.308;7.336;2022-10-22T05:33:30;3.67;;;3.17;;
12288;SDS011;6207;49.308;7.336;2022-10-22T05:35:58;8.07;;;3.20;;
12288;SDS011;6207;49.308;7.336;2022-10-22T05:38:26;5.60;;;4.30;;
12288;SDS011;6207;49.308;7.336;2022-10-22T05:43:27;6.57;;;5.07;;
12288;SDS011;6207;49.308;7.336;2022-10-22T05:45:54;5.27;;;4.77;;
12288;SDS011;6207;49.308;7.336;2022-10-22T05:48:23;4.30;;;3.43;;
12288;SDS011;6207;49.308;7.336;2022-10-22T05:50:49;4.73;;;1.70;;
12288;SDS011;6207;49.308;7.336;2022-10-22T05:53:17;3.10;;;2.00;;
12288;SDS011;6207;49.308;7.336;2022-10-22T05:55:44;2.60;;;2.03;;
12288;SDS011;6207;49.308;7.336;2022-10-22T05:58:11;6.83;;;2.20;;
12288;SDS011;6207;49.308;7.336;2022-10-22T06:00:38;3.87;;;2.27;;
12288;SDS011;6207;49.308;7.336;2022-10-22T06:03:05;4.20;;;2.20;;
12288;SDS011;6207;49.308;7.336;2022-10-22T06:05:35;3.00;;;2.20;;
12288;SDS011;6207;49.308;7.336;2022-10-22T06:08:03;4.13;;;2.50;;
12288;SDS011;6207;49.308;7.336;2022-10-22T06:10:30;4.23;;;2.90;;
12288;SDS011;6207;49.308;7.336;2022-10-22T06:12:57;6.07;;;2.43;;
12288;SDS011;6207;49.308;7.336;2022-10-22T06:15:26;3.67;;;2.20;;
12288;SDS011;6207;49.308;7.336;2022-10-22T06:17:53;3.60;;;2.47;;
12288;SDS011;6207;49.308;7.336;2022-10-22T06:20:20;2.67;;;2.17;;
12288;SDS011;6207;49.308;7.336;2022-10-22T06:22:46;3.10;;;2.03;;
12288;SDS011;6207;49.308;7.336;2022-10-22T06:25:13;5.10;;;2.30;;
12288;SDS011;6207;49.308;7.336;2022-10-22T06:27:42;4.23;;;2.47;;
12288;SDS011;6207;49.308;7.336;2022-10-22T06:30:14;4.63;;;2.30;;
12288;SDS011;6207;49.308;7.336;2022-10-22T06:32:41;2.40;;;2.13;;
12288;SDS011;6207;49.308;7.336;2022-10-22T06:35:08;3.20;;;2.20;;
12288;SDS011;6207;49.308;7.336;2022-10-22T06:37:35;3.70;;;1.80;;
12288;SDS011;6207;49.308;7.336;2022-10-22T06:40:02;8.23;;;2.30;;
12288;SDS011;6207;49.308;7.336;2022-10-22T06:42:28;2.50;;;2.10;;
12288;SDS011;6207;49.308;7.336;2022-10-22T06:44:55;5.03;;;2.00;;
12288;SDS011;6207;49.308;7.336;2022-10-22T06:47:22;4.87;;;2.10;;
12288;SDS011;6207;49.308;7.336;2022-10-22T06:49:49;4.10;;;2.30;;
12288;SDS011;6207;49.308;7.336;2022-10-22T06:52:15;2.53;;;2.00;;
12288;SDS011;6207;49.308;7.336;2022-10-22T06:54:43;3.40;;;2.00;;
12288;SDS011;6207;49.308;7.336;2022-10-22T06:57:09;3.73;;;2.13;;
12288;SDS011;6207;49.308;7.336;2022-10-22T06:59:36;5.77;;;2.30;;
12288;SDS011;6207;49.308;7.336;2022-10-22T07:02:03;2.27;;;2.00;;
12288;SDS011;6207;49.308;7.336;2022-10-22T07:04:29;2.87;;;2.00;;
12288;SDS011;6207;49.308;7.336;2022-10-22T07:06:56;3.10;;;2.03;;
12288;SDS011;6207;49.308;7.336;2022-10-22T07:09:23;3.33;;;2.07;;
12288;SDS011;6207;49.308;7.336;2022-10-22T07:11:50;2.40;;;2.13;;
12288;SDS011;6207;49.308;7.336;2022-10-22T07:14:16;3.13;;;2.03;;
12288;SDS011;6207;49.308;7.336;2022-10-22T07:16:43;3.97;;;2.10;;
12288;SDS011;6207;49.308;7.336;2022-10-22T07:19:12;3.70;;;2.00;;
12288;SDS011;6207;49.308;7.336;2022-10-22T07:21:39;4.37;;;2.57;;
12288;SDS011;6207;49.308;7.336;2022-10-22T07:24:05;3.20;;;2.90;;
12288;SDS011;6207;49.308;7.336;2022-10-22T07:26:32;4.57;;;3.10;;
12288;SDS011;6207;49.308;7.336;2022-10-22T07:28:59;4.80;;;4.30;;
12288;SDS011;6207;49.308;7.336;2022-10-22T07:31:26;8.40;;;7.80;;
12288;SDS011;6207;49.308;7.336;2022-10-22T07:33:53;9.33;;;8.80;;
12288;SDS011;6207;49.308;7.336;2022-10-22T07:36:20;9.90;;;9.30;;
12288;SDS011;6207;49.308;7.336;2022-10-22T07:38:48;9.95;;;9.32;;
12288;SDS011;6207;49.308;7.336;2022-10-22T07:41:18;9.50;;;8.90;;
12288;SDS011;6207;49.308;7.336;2022-10-22T07:43:45;8.80;;;8.30;;
12288;SDS011;6207;49.308;7.336;2022-10-22T07:46:12;8.70;;;8.30;;
12288;SDS011;6207;49.308;7.336;2022-10-22T07:48:38;9.55;;;9.05;;
12288;SDS011;6207;49.308;7.336;2022-10-22T07:51:06;9.18;;;8.77;;
12288;SDS011;6207;49.308;7.336;2022-10-22T07:53:33;9.50;;;8.80;;
12288;SDS011;6207;49.308;7.336;2022-10-22T07:56:00;8.77;;;8.38;;
12288;SDS011;6207;49.308;7.336;2022-10-22T07:58:27;8.38;;;7.75;;
12288;SDS011;6207;49.308;7.336;2022-10-22T08:00:54;7.40;;;7.00;;
12288;SDS011;6207;49.308;7.336;2022-10-22T08:03:23;7.70;;;7.30;;
12288;SDS011;6207;49.308;7.336;2022-10-22T08:05:50;7.75;;;7.35;;
12288;SDS011;6207;49.308;7.336;2022-10-22T08:08:17;7.60;;;7.00;;
12288;SDS011;6207;49.308;7.336;2022-10-22T08:10:45;11.60;;;7.15;;
12288;SDS011;6207;49.308;7.336;2022-10-22T08:13:13;8.13;;;7.35;;
12288;SDS011;6207;49.308;7.336;2022-10-22T08:15:40;8.18;;;7.65;;
12288;SDS011;6207;49.308;7.336;2022-10-22T08:18:08;8.27;;;7.88;;
12288;SDS011;6207;49.308;7.336;2022-10-22T08:20:35;8.18;;;7.72;;
12288;SDS011;6207;49.308;7.336;2022-10-22T08:23:02;8.40;;;7.90;;
12288;SDS011;6207;49.308;7.336;2022-10-22T08:25:29;8.85;;;8.35;;
12288;SDS011;6207;49.308;7.336;2022-10-22T08:27:56;9.35;;;8.60;;
12288;SDS011;6207;49.308;7.336;2022-10-22T08:30:23;9.57;;;9.00;;
12288;SDS011;6207;49.308;7.336;2022-10-22T08:32:52;8.55;;;7.90;;
12288;SDS011;6207;49.308;7.336;2022-10-22T08:35:19;8.00;;;7.50;;
12288;SDS011;6207;49.308;7.336;2022-10-22T08:37:46;8.45;;;7.68;;
12288;SDS011;6207;49.308;7.336;2022-10-22T08:40:36;7.85;;;7.18;;
12288;SDS011;6207;49.308;7.336;2022-10-22T08:45:34;7.20;;;6.70;;
12288;SDS011;6207;49.308;7.336;2022-10-22T08:48:27;6.90;;;6.40;;
12288;SDS011;6207;49.308;7.336;2022-10-22T08:51:09;6.97;;;6.38;;
12288;SDS011;6207;49.308;7.336;2022-10-22T08:53:52;7.05;;;6.50;;
12288;SDS011;6207;49.308;7.336;2022-10-22T08:56:41;7.40;;;7.00;;
12288;SDS011;6207;49.308;7.336;2022-10-22T08:59:16;7.63;;;7.13;;
12288;SDS011;6207;49.308;7.336;2022-10-22T09:01:52;7.72;;;7.13;;
12288;SDS011;6207;49.308;7.336;2022-10-22T09:06:58;8.18;;;7.40;;
12288;SDS011;6207;49.308;7.336;2022-10-22T09:09:27;7.32;;;6.90;;
12288;SDS011;6207;49.308;7.336;2022-10-22T09:11:57;7.20;;;6.65;;
12288;SDS011;6207;49.308;7.336;2022-10-22T09:14:25;7.50;;;6.97;;
12288;SDS011;6207;49.308;7.336;2022-10-22T09:17:01;6.88;;;6.38;;
12288;SDS011;6207;49.308;7.336;2022-10-22T09:20:12;6.55;;;6.15;;
12288;SDS011;6207;49.308;7.336;2022-10-22T09:23:23;6.97;;;6.38;;
12288;SDS011;6207;49.308;7.336;2022-10-22T09:25:47;6.85;;;6.35;;
12288;SDS011;6207;49.308;7.336;2022-10-22T09:28:16;6.95;;;6.40;;
12288;SDS011;6207;49.308;7.336;2022-10-22T09:30:43;7.45;;;6.88;;
12288;SDS011;6207;49.308;7.336;2022-10-22T09:33:15;6.95;;;6.55;;
12288;SDS011;6207;49.308;7.336;2022-10-22T09:35:51;7.05;;;6.65;;
12288;SDS011;6207;49.308;7.336;2022-10-22T09:38:27;6.47;;;6.18;;
12288;SDS011;6207;49.308;7.336;2022-10-22T09:40:58;7.28;;;6.60;;
12288;SDS011;6207;49.308;7.336;2022-10-22T09:43:26;7.18;;;6.65;;
12288;SDS011;6207;49.308;7.336;2022-10-22T09:45:57;6.50;;;6.10;;
12288;SDS011;6207;49.308;7.336;2022-10-22T09:48:31;6.40;;;5.90;;
12288;SDS011;6207;49.308;7.336;2022-10-22T09:53:46;7.28;;;6.68;;
12288;SDS011;6207;49.308;7.336;2022-10-22T09:56:26;7.25;;;6.60;;
12288;SDS011;6207;49.308;7.336;2022-10-22T09:58:58;6.82;;;6.35;;
12288;SDS011;6207;49.308;7.336;2022-10-22T10:04:01;7.60;;;7.00;;
12288;SDS011;6207;49.308;7.336;2022-10-22T10:06:35;7.85;;;7.30;;
12288;SDS011;6207;49.308;7.336;2022-10-22T10:09:12;7.30;;;6.90;;
12288;SDS011;6207;49.308;7.336;2022-10-22T10:11:47;7.95;;;7.10;;
12288;SDS011;6207;49.308;7.336;2022-10-22T10:17:21;9.77;;;8.93;;
12288;SDS011;6207;49.308;7.336;2022-10-22T10:22:47;10.82;;;9.60;;
12288;SDS011;6207;49.308;7.336;2022-10-22T10:25:45;7.00;;;6.60;;
12288;SDS011;6207;49.308;7.336;2022-10-22T10:30:50;8.00;;;7.38;;
12288;SDS011;6207;49.308;7.336;2022-10-22T10:38:59;7.30;;;6.90;;
12288;SDS011;6207;49.308;7.336;2022-10-22T10:49:25;7.32;;;6.85;;
12288;SDS011;6207;49.308;7.336;2022-10-22T10:55:36;6.78;;;6.40;;
12288;SDS011;6207;49.308;7.336;2022-10-22T11:01:01;7.10;;;6.45;;
12288;SDS011;6207;49.308;7.336;2022-10-22T11:06:30;7.13;;;6.63;;
12288;SDS011;6207;49.308;7.336;2022-10-22T11:09:22;7.07;;;6.53;;
12288;SDS011;6207;49.308;7.336;2022-10-22T11:14:22;6.90;;;6.40;;
12288;SDS011;6207;49.308;7.336;2022-10-22T11:17:00;6.32;;;5.88;;
12288;SDS011;6207;49.308;7.336;2022-10-22T11:19:33;6.70;;;6.18;;
12288;SDS011;6207;49.308;7.336;2022-10-22T11:22:22;8.85;;;6.10;;
12288;SDS011;6207;49.308;7.336;2022-10-22T11:27:57;6.88;;;6.32;;
12288;SDS011;6207;49.308;7.336;2022-10-22T11:30:48;6.93;;;6.30;;
12288;SDS011;6207;49.308;7.336;2022-10-22T11:36:35;7.00;;;6.40;;
12288;SDS011;6207;49.308;7.336;2022-10-22T11:39:03;7.00;;;6.30;;
12288;SDS011;6207;49.308;7.336;2022-10-22T11:41:31;6.80;;;6.22;;
12288;SDS011;6207;49.308;7.336;2022-10-22T11:44:08;6.65;;;6.25;;
12288;SDS011;6207;49.308;7.336;2022-10-22T11:46:38;7.13;;;6.55;;
12288;SDS011;6207;49.308;7.336;2022-10-22T11:49:27;6.57;;;6.18;;
12288;SDS011;6207;49.308;7.336;2022-10-22T11:52:22;6.95;;;6.35;;
12288;SDS011;6207;49.308;7.336;2022-10-22T11:54:54;6.20;;;5.90;;
12288;SDS011;6207;49.308;7.336;2022-10-22T11:57:27;6.40;;;5.80;;
12288;SDS011;6207;49.308;7.336;2022-10-22T12:00:08;6.55;;;5.97;;
12288;SDS011;6207;49.308;7.336;2022-10-22T12:03:03;5.97;;;5.68;;
12288;SDS011;6207;49.308;7.336;2022-10-22T12:05:42;6.60;;;5.90;;
12288;SDS011;6207;49.308;7.336;2022-10-22T12:10:57;6.78;;;5.82;;
12288;SDS011;6207;49.308;7.336;2022-10-22T12:13:29;6.57;;;5.95;;
12288;SDS011;6207;49.308;7.336;2022-10-22T12:16:00;6.70;;;6.10;;
12288;SDS011;6207;49.308;7.336;2022-10-22T12:18:33;6.90;;;5.90;;
12288;SDS011;6207;49.308;7.336;2022-10-22T12:21:10;6.63;;;6.03;;
12288;SDS011;6207;49.308;7.336;2022-10-22T12:23:39;7.97;;;6.57;;
12288;SDS011;6207;49.308;7.336;2022-10-22T12:26:19;6.85;;;5.82;;
12288;SDS011;6207;49.308;7.336;2022-10-22T12:28:57;8.55;;;6.35;;
12288;SDS011;6207;49.308;7.336;2022-10-22T12:31:25;6.22;;;5.90;;
12288;SDS011;6207;49.308;7.336;2022-10-22T12:33:58;7.07;;;6.40;;
12288;SDS011;6207;49.308;7.336;2022-10-22T12:36:26;6.95;;;6.35;;
12288;SDS011;6207;49.308;7.336;2022-10-22T12:38:54;6.40;;;6.00;;
12288;SDS011;6207;49.308;7.336;2022-10-22T12:41:32;7.28;;;6.50;;
12288;SDS011;6207;49.308;7.336;2022-10-22T12:44:00;6.57;;;6.07;;
12288;SDS011;6207;49.308;7.336;2022-10-22T12:46:30;6.45;;;5.97;;
12288;SDS011;6207;49.308;7.336;2022-10-22T12:49:04;6.30;;;5.80;;
12288;SDS011;6207;49.308;7.336;2022-10-22T12:51:36;5.80;;;5.50;;
12288;SDS011;6207;49.308;7.336;2022-10-22T12:54:07;6.55;;;5.95;;
12288;SDS011;6207;49.308;7.336;2022-10-22T12:56:38;6.53;;;5.93;;
12288;SDS011;6207;49.308;7.336;2022-10-22T12:59:24;6.72;;;6.15;;
12288;SDS011;6207;49.308;7.336;2022-10-22T13:01:54;6.30;;;5.80;;
12288;SDS011;6207;49.308;7.336;2022-10-22T13:04:30;7.03;;;5.75;;
12288;SDS011;6207;49.308;7.336;2022-10-22T13:12:11;6.20;;;5.80;;
12288;SDS011;6207;49.308;7.336;2022-10-22T13:14:42;6.13;;;5.63;;
12288;SDS011;6207;49.308;7.336;2022-10-22T13:17:14;6.40;;;5.70;;
12288;SDS011;6207;49.308;7.336;2022-10-22T13:19:45;7.60;;;5.82;;
12288;SDS011;6207;49.308;7.336;2022-10-22T13:24:51;6.20;;;5.70;;
12288;SDS011;6207;49.308;7.336;2022-10-22T13:27:19;7.00;;;6.18;;
12288;SDS011;6207;49.308;7.336;2022-10-22T13:29:46;6.70;;;6.10;;
12288;SDS011;6207;49.308;7.336;2022-10-22T13:32:31;6.43;;;5.70;;
12288;SDS011;6207;49.308;7.336;2022-10-22T13:34:59;6.40;;;5.78;;
12288;SDS011;6207;49.308;7.336;2022-10-22T13:37:28;5.85;;;5.35;;
12288;SDS011;6207;49.308;7.336;2022-10-22T13:39:57;6.05;;;5.60;;
12288;SDS011;6207;49.308;7.336;2022-10-22T13:42:24;6.43;;;5.82;;
12288;SDS011;6207;49.308;7.336;2022-10-22T13:44:51;6.55;;;5.97;;
12288;SDS011;6207;49.308;7.336;2022-10-22T13:47:25;6.40;;;6.00;;
12288;SDS011;6207;49.308;7.336;2022-10-22T13:49:55;6.45;;;6.00;;
12288;SDS011;6207;49.308;7.336;2022-10-22T13:52:28;6.53;;;6.05;;
12288;SDS011;6207;49.308;7.336;2022-10-22T13:57:45;6.32;;;5.82;;
12288;SDS011;6207;49.308;7.336;2022-10-22T14:00:14;6.30;;;5.70;;
12288;SDS011;6207;49.308;7.336;2022-10-22T14:02:43;6.63;;;6.13;;
12288;SDS011;6207;49.308;7.336;2022-10-22T14:05:13;6.50;;;6.10;;
12288;SDS011;6207;49.308;7.336;2022-10-22T14:07:41;6.90;;;6.30;;
12288;SDS011;6207;49.308;7.336;2022-10-22T14:10:13;6.82;;;6.32;;
12288;SDS011;6207;49.308;7.336;2022-10-22T14:12:47;6.22;;;5.72;;
12288;SDS011;6207;49.308;7.336;2022-10-22T14:15:22;6.72;;;6.00;;
12288;SDS011;6207;49.308;7.336;2022-10-22T14:17:56;6.47;;;5.95;;
12288;SDS011;6207;49.308;7.336;2022-10-22T14:20:27;6.75;;;6.15;;
12288;SDS011;6207;49.308;7.336;2022-10-22T14:22:56;6.75;;;6.07;;
12288;SDS011;6207;49.308;7.336;2022-10-22T14:25:28;6.60;;;5.80;;
12288;SDS011;6207;49.308;7.336;2022-10-22T14:27:56;6.32;;;5.82;;
12288;SDS011;6207;49.308;7.336;2022-10-22T14:30:23;6.70;;;6.10;;
12288;SDS011;6207;49.308;7.336;2022-10-22T14:32:51;6.68;;;6.20;;
12288;SDS011;6207;49.308;7.336;2022-10-22T14:35:20;6.63;;;6.03;;
12288;SDS011;6207;49.308;7.336;2022-10-22T14:37:47;6.68;;;6.18;;
12288;SDS011;6207;49.308;7.336;2022-10-22T14:40:16;6.97;;;6.47;;
12288;SDS011;6207;49.308;7.336;2022-10-22T14:42:46;6.82;;;6.22;;
12288;SDS011;6207;49.308;7.336;2022-10-22T14:45:20;6.47;;;5.90;;
12288;SDS011;6207;49.308;7.336;2022-10-22T14:47:49;6.75;;;6.00;;
12288;SDS011;6207;49.308;7.336;2022-10-22T14:50:17;6.82;;;6.22;;
12288;SDS011;6207;49.308;7.336;2022-10-22T14:52:44;6.95;;;5.90;;
12288;SDS011;6207;49.308;7.336;2022-10-22T14:55:12;6.57;;;6.03;;
12288;SDS011;6207;49.308;7.336;2022-10-22T14:57:40;8.40;;;6.20;;
12288;SDS011;6207;49.308;7.336;2022-10-22T15:00:09;6.40;;;5.93;;
12288;SDS011;6207;49.308;7.336;2022-10-22T15:02:38;6.85;;;6.43;;
12288;SDS011;6207;49.308;7.336;2022-10-22T15:05:06;7.40;;;6.80;;
12288;SDS011;6207;49.308;7.336;2022-10-22T15:07:33;6.90;;;6.28;;
12288;SDS011;6207;49.308;7.336;2022-10-22T15:10:00;6.90;;;6.18;;
12288;SDS011;6207;49.308;7.336;2022-10-22T15:12:27;7.13;;;6.50;;
12288;SDS011;6207;49.308;7.336;2022-10-22T15:14:54;7.07;;;6.47;;
12288;SDS011;6207;49.308;7.336;2022-10-22T15:17:21;7.13;;;6.25;;
12288;SDS011;6207;49.308;7.336;2022-10-22T15:19:48;7.28;;;6.57;;
12288;SDS011;6207;49.308;7.336;2022-10-22T15:22:14;6.80;;;6.30;;
12288;SDS011;6207;49.308;7.336;2022-10-22T15:24:42;7.20;;;6.40;;
12288;SDS011;6207;49.308;7.336;2022-10-22T15:27:10;7.03;;;6.47;;
12288;SDS011;6207;49.308;7.336;2022-10-22T15:29:40;7.20;;;6.68;;
12288;SDS011;6207;49.308;7.336;2022-10-22T15:32:07;6.85;;;6.25;;
12288;SDS011;6207;49.308;7.336;2022-10-22T15:34:37;6.95;;;6.25;;
12288;SDS011;6207;49.308;7.336;2022-10-22T15:37:06;7.75;;;6.03;;
12288;SDS011;6207;49.308;7.336;2022-10-22T15:39:34;6.40;;;6.00;;
12288;SDS011;6207;49.308;7.336;2022-10-22T15:42:04;7.00;;;5.93;;
12288;SDS011;6207;49.308;7.336;2022-10-22T15:44:31;5.95;;;5.50;;
12288;SDS011;6207;49.308;7.336;2022-10-22T15:46:59;7.53;;;5.78;;
12288;SDS011;6207;49.308;7.336;2022-10-22T15:49:29;6.82;;;5.50;;
12288;SDS011;6207;49.308;7.336;2022-10-22T15:51:56;5.78;;;5.28;;
12288;SDS011;6207;49.308;7.336;2022-10-22T15:54:23;8.50;;;5.53;;
12288;SDS011;6207;49.308;7.336;2022-10-22T15:56:54;8.35;;;5.47;;
12288;SDS011;6207;49.308;7.336;2022-10-22T15:59:22;8.05;;;5.82;;
12288;SDS011;6207;49.308;7.336;2022-10-22T16:01:49;6.00;;;5.50;;
12288;SDS011;6207;49.308;7.336;2022-10-22T16:04:16;6.82;;;4.72;;
12288;SDS011;6207;49.308;7.336;2022-10-22T16:06:44;8.35;;;5.13;;
12288;SDS011;6207;49.308;7.336;2022-10-22T16:09:16;9.52;;;5.00;;
12288;SDS011;6207;49.308;7.336;2022-10-22T16:11:44;5.72;;;5.00;;
12288;SDS011;6207;49.308;7.336;2022-10-22T16:14:12;5.82;;;4.82;;
12288;SDS011;6207;49.308;7.336;2022-10-22T16:16:41;6.10;;;4.68;;
12288;SDS011;6207;49.308;7.336;2022-10-22T16:19:27;5.85;;;4.50;;
12288;SDS011;6207;49.308;7.336;2022-10-22T16:21:54;5.82;;;4.30;;
12288;SDS011;6207;49.308;7.336;2022-10-22T16:24:21;13.18;;;6.15;;
12288;SDS011;6207;49.308;7.336;2022-10-22T16:26:48;8.68;;;6.28;;
12288;SDS011;6207;49.308;7.336;2022-10-22T16:29:15;8.48;;;5.55;;
12288;SDS011;6207;49.308;7.336;2022-10-22T16:31:42;8.30;;;4.10;;
12288;SDS011;6207;49.308;7.336;2022-10-22T16:34:10;6.05;;;4.40;;
12288;SDS011;6207;49.308;7.336;2022-10-22T16:36:37;4.65;;;4.07;;
12288;SDS011;6207;49.308;7.336;2022-10-22T16:39:05;6.60;;;4.70;;
12288;SDS011;6207;49.308;7.336;2022-10-22T16:41:33;5.72;;;4.78;;
12288;SDS011;6207;49.308;7.336;2022-10-22T16:44:04;5.20;;;4.70;;
12288;SDS011;6207;49.308;7.336;2022-10-22T16:46:33;5.45;;;5.00;;
12288;SDS011;6207;49.308;7.336;2022-10-22T16:49:04;7.20;;;5.00;;
12288;SDS011;6207;49.308;7.336;2022-10-22T16:51:32;6.03;;;5.50;;
12288;SDS011;6207;49.308;7.336;2022-10-22T16:54:00;8.38;;;5.80;;